• pl
  • eng

Awiacja
Komunikaty METAR z lotnisk wojskowych. 11:01 20.06.2019

METAR EPCE 200930Z 21006KT 110V250 9999 FEW087 27/17
Q1009 RMK 271 054 2/2=

METAR EPDA 200930Z 24005KT 200V320 9999 FEW125 BKN161 26/16
Q1008 RMK 256 056 5/1 LTG DSNT NE=

METAR EPDE 200930Z 15006KT 9999 FEW028 BKN100 27/18 Q1012 RMK 266 060
6/2=

METAR EPIR 200930Z NIL=

METAR EPKS 200930Z 21009KT CAVOK 30/13 Q1009 RMK 303 035 3/3=

METAR EPLK 200930Z NIL=

METAR EPLY 200930Z NIL=

METAR EPMB 200930Z 20007KT CAVOK 28/19 Q1009
RMK 281 058 4/4=

METAR EPMI 200930Z NIL=

METAR EPMM 200930Z 21005KT 150V280 9999 FEW025 BKN100 27/20
Q1011 RMK 267 066 7/2=

METAR EPNA 200930Z NIL=

METAR EPOK 200930Z 14010KT CAVOK 25/19
Q1009 RMK 251 070 1/1 LTG DSNT NW=

METAR EPPR 200930Z NIL=

METAR EPPW 200930Z 17010KT CAVOK 30/14 Q1009 RMK 303 038 4/4=

METAR EPRA 200930Z 24004KT 9999 FEW030 BKN100 BKN200 27/19 Q1012 RMK
265 062 6/1=

METAR EPSN 200930Z 28011KT 9999 FEW030CB BKN070 22/17 Q1010 RMK 215
074 6/2=

METAR EPTM 200930Z NIL=
 METAR EPCE
Lokalizacja:EPCE Cewice
Czas:09:30 UTC
Średni kierunek wiatru:210 °
Średnia prędkość wiatru:6 węzłów
Kierunek wiatru zmienia się od:110 °
Kierunek wiatru zmienia się do:250 °
Widzialność:10 km i więcej
Pierwsza warstwa chmur:1/8 do 2/8, wysokość podstawy 8700 FT
Temperatura powietrza:27 °C
Temperatura punktu rosy:17 °C
Ciśnienie QNH:1009 hPa
Dokładna temperatura powietrza:27,1 °C
Dokładna wilgotność względna:54 %
Zachmurzenie przez wszystkie piętra chmur:2/8
Zachmurzenie przez chmury niskie:2/8
Awiacja.imgw.pl jest pogodowym serwisem informacyjnym
Instytutu Meteorologii i Gospodarki Wodnej Państwowego Instytutu Badawczego.
Copyright IMGW PIB 2009-2011© Wszelkie prawa zastrzeżone.